createdAt,value
2018-12-11T00:00:04.683Z,17.80
2018-12-11T00:01:04.690Z,17.40
2018-12-11T00:02:04.664Z,17.50
2018-12-11T00:03:04.649Z,18.70
2018-12-11T00:04:04.646Z,15.60
2018-12-11T00:05:04.626Z,17.10
2018-12-11T00:06:04.646Z,21.80
2018-12-11T00:07:04.615Z,20.40
2018-12-11T00:08:04.593Z,14.20
2018-12-11T00:09:05.397Z,16.30
2018-12-11T00:10:04.574Z,18.20
2018-12-11T00:11:04.577Z,18.70
2018-12-11T00:12:04.548Z,18.00
2018-12-11T00:13:04.542Z,16.90
2018-12-11T00:14:04.528Z,16.10
2018-12-11T00:15:04.524Z,17.30
2018-12-11T00:16:04.526Z,19.30
2018-12-11T00:17:04.497Z,17.00
2018-12-11T00:18:04.487Z,13.20
2018-12-11T00:19:04.468Z,18.30
2018-12-11T00:20:04.469Z,19.00
2018-12-11T00:21:04.476Z,15.40
2018-12-11T00:22:04.438Z,18.40
2018-12-11T00:23:04.426Z,19.30
2018-12-11T00:24:04.417Z,23.20
2018-12-11T00:25:04.402Z,20.10
2018-12-11T00:26:04.435Z,15.40
2018-12-11T00:27:04.384Z,17.70
2018-12-11T00:28:04.371Z,17.80
2018-12-11T00:29:04.373Z,17.80
2018-12-11T00:30:04.354Z,19.00
2018-12-11T00:31:04.344Z,18.00
2018-12-11T00:32:04.341Z,18.40
2018-12-11T00:33:04.314Z,18.00
2018-12-11T00:34:04.311Z,19.80
2018-12-11T00:35:04.291Z,16.40
2018-12-11T00:36:04.308Z,15.90
2018-12-11T00:37:04.289Z,23.50
2018-12-11T00:38:04.265Z,20.30
2018-12-11T00:39:04.248Z,14.20
2018-12-11T00:40:04.238Z,16.20
2018-12-11T00:41:04.232Z,17.70
2018-12-11T00:42:04.233Z,20.90
2018-12-11T00:43:04.208Z,20.00
2018-12-11T00:44:04.201Z,13.70
2018-12-11T00:45:04.188Z,16.60
2018-12-11T00:46:04.175Z,17.80
2018-12-11T00:47:04.219Z,19.50
2018-12-11T00:48:04.157Z,20.20
2018-12-11T00:49:04.137Z,19.60
2018-12-11T00:50:04.128Z,18.40
2018-12-11T00:51:04.117Z,17.70
2018-12-11T00:52:04.140Z,19.20
2018-12-11T00:53:04.098Z,22.90
2018-12-11T00:54:04.089Z,20.60
2018-12-11T00:55:04.080Z,17.90
2018-12-11T00:56:04.062Z,22.00
2018-12-11T00:57:04.058Z,20.80
2018-12-11T00:58:04.056Z,16.90
2018-12-11T00:59:04.034Z,18.80
2018-12-11T01:00:04.020Z,22.30
2018-12-11T01:01:04.006Z,15.40
2018-12-11T01:02:03.998Z,20.40
2018-12-11T01:03:04.001Z,13.70
2018-12-11T01:04:03.975Z,17.80
2018-12-11T01:05:03.969Z,19.90
2018-12-11T01:06:03.952Z,20.10
2018-12-11T01:07:03.955Z,17.80
2018-12-11T01:08:03.949Z,18.70
2018-12-11T01:09:03.916Z,22.20
2018-12-11T01:10:03.909Z,16.70
2018-12-11T01:11:03.898Z,19.50
2018-12-11T01:12:03.886Z,17.20
2018-12-11T01:13:03.894Z,16.60
2018-12-11T01:14:03.866Z,19.30
2018-12-11T01:15:03.853Z,21.60
2018-12-11T01:16:03.849Z,20.00
2018-12-11T01:17:03.841Z,18.50
2018-12-11T01:18:03.845Z,17.20
2018-12-11T01:19:03.809Z,20.30
2018-12-11T01:20:03.794Z,21.30
2018-12-11T01:21:03.784Z,16.40
2018-12-11T01:22:03.784Z,20.20
2018-12-11T01:23:03.786Z,15.70
2018-12-11T01:24:03.752Z,22.60
2018-12-11T01:25:03.744Z,15.80
2018-12-11T01:26:03.737Z,16.50
2018-12-11T01:27:03.722Z,20.60
2018-12-11T01:28:03.728Z,16.90
2018-12-11T01:29:03.700Z,19.80
2018-12-11T01:30:03.685Z,19.20
2018-12-11T01:31:03.674Z,21.00
2018-12-11T01:32:03.659Z,21.50
2018-12-11T01:33:03.672Z,17.20
2018-12-11T01:34:03.648Z,21.00
2018-12-11T01:35:03.632Z,23.60
2018-12-11T01:36:03.619Z,20.20
2018-12-11T01:37:03.609Z,20.40
2018-12-11T01:38:03.619Z,19.10
2018-12-11T01:39:03.588Z,20.30
2018-12-11T01:40:03.575Z,17.40
2018-12-11T01:41:03.568Z,20.10
2018-12-11T01:42:03.552Z,25.20
2018-12-11T01:43:03.566Z,22.30
2018-12-11T01:44:03.531Z,21.50
2018-12-11T01:45:03.523Z,21.30
2018-12-11T01:46:03.510Z,14.40
2018-12-11T01:47:03.500Z,22.30
2018-12-11T01:48:03.502Z,28.00
2018-12-11T01:49:03.482Z,17.70
2018-12-11T01:50:03.466Z,20.30
2018-12-11T01:51:03.450Z,19.10
2018-12-11T01:52:03.445Z,19.80
2018-12-11T01:53:03.438Z,26.00
2018-12-11T01:54:03.440Z,19.30
2018-12-11T01:55:03.411Z,18.40
2018-12-11T01:56:03.402Z,15.90
2018-12-11T01:57:03.386Z,20.60
2018-12-11T01:58:03.380Z,21.70
2018-12-11T01:59:03.381Z,19.60
2018-12-11T02:00:03.352Z,20.70
2018-12-11T02:01:03.349Z,20.90
2018-12-11T02:02:03.332Z,23.20
2018-12-11T02:03:03.325Z,24.70
2018-12-11T02:04:03.331Z,22.20
2018-12-11T02:05:03.300Z,26.20
2018-12-11T02:06:03.288Z,21.70
2018-12-11T02:07:03.277Z,21.70
2018-12-11T02:08:03.266Z,21.20
2018-12-11T02:09:03.276Z,21.10
2018-12-11T02:10:03.246Z,23.90
2018-12-11T02:11:03.235Z,24.00
2018-12-11T02:12:03.223Z,24.50
2018-12-11T02:13:03.212Z,21.30
2018-12-11T02:14:03.220Z,24.80
2018-12-11T02:15:03.192Z,24.20
2018-12-11T02:16:03.183Z,22.50
2018-12-11T02:17:03.170Z,19.10
2018-12-11T02:18:03.159Z,23.70
2018-12-11T02:19:03.179Z,19.10
2018-12-11T02:20:03.139Z,26.50
2018-12-11T02:21:03.128Z,23.00
2018-12-11T02:22:03.114Z,24.20
2018-12-11T02:23:03.107Z,20.70
2018-12-11T02:24:03.115Z,20.60
2018-12-11T02:25:03.081Z,29.50
2018-12-11T02:26:03.070Z,26.10
2018-12-11T02:27:03.061Z,18.60
2018-12-11T02:29:03.059Z,23.60
2018-12-11T02:30:03.030Z,28.60
2018-12-11T02:31:03.016Z,27.10
2018-12-11T02:32:03.013Z,20.50
2018-12-11T02:33:02.997Z,20.30
2018-12-11T02:34:02.983Z,27.80
2018-12-11T02:35:02.993Z,18.90
2018-12-11T02:36:02.959Z,23.20
2018-12-11T02:37:02.959Z,22.90
2018-12-11T02:38:02.946Z,22.20
2018-12-11T02:39:02.932Z,20.50
2018-12-11T02:40:02.935Z,24.20
2018-12-11T02:41:02.903Z,22.20
2018-12-11T02:42:02.902Z,21.30
2018-12-11T02:43:02.889Z,22.80
2018-12-11T02:44:02.871Z,21.90
2018-12-11T02:45:02.879Z,21.10
2018-12-11T02:46:02.852Z,23.90
2018-12-11T02:47:02.846Z,21.00
2018-12-11T02:48:02.827Z,24.80
2018-12-11T02:49:02.817Z,22.20
2018-12-11T02:50:02.825Z,19.10
2018-12-11T02:51:02.797Z,26.10
2018-12-11T02:52:02.789Z,22.10
2018-12-11T02:53:02.775Z,23.10
2018-12-11T02:54:02.762Z,27.10
2018-12-11T02:55:02.772Z,23.80
2018-12-11T02:56:02.747Z,24.80
2018-12-11T02:57:02.726Z,24.30
2018-12-11T02:58:02.717Z,25.90
2018-12-11T02:59:02.708Z,22.10
2018-12-11T03:00:02.708Z,22.00
2018-12-11T03:01:02.682Z,28.50
2018-12-11T03:02:02.679Z,23.30
2018-12-11T03:03:02.660Z,22.20
2018-12-11T03:04:02.654Z,23.00
2018-12-11T03:05:02.656Z,26.80
2018-12-11T03:06:02.636Z,23.60
2018-12-11T03:07:02.623Z,25.60
2018-12-11T03:08:02.606Z,25.80
2018-12-11T03:09:02.596Z,25.50
2018-12-11T03:10:02.603Z,28.30
2018-12-11T03:11:02.580Z,25.60
2018-12-11T03:12:02.569Z,23.40
2018-12-11T03:13:02.558Z,34.80
2018-12-11T03:14:02.537Z,24.90
2018-12-11T03:15:02.545Z,25.70
2018-12-11T03:16:02.518Z,24.70
2018-12-11T03:17:02.515Z,23.10
2018-12-11T03:18:02.498Z,20.50
2018-12-11T03:19:02.487Z,27.40
2018-12-11T03:20:02.506Z,23.10
2018-12-11T03:21:02.463Z,21.00
2018-12-11T03:22:02.455Z,20.80
2018-12-11T03:23:02.446Z,25.10
2018-12-11T03:24:02.431Z,24.00
2018-12-11T03:25:02.440Z,22.20
2018-12-11T03:26:02.406Z,25.00
2018-12-11T03:27:02.401Z,27.70
2018-12-11T03:28:02.391Z,31.10
2018-12-11T03:29:02.375Z,26.70
2018-12-11T03:30:02.411Z,25.00
2018-12-11T03:31:02.356Z,23.40
2018-12-11T03:32:02.346Z,23.10
2018-12-11T03:33:02.342Z,22.50
2018-12-11T03:34:02.320Z,28.50
2018-12-11T03:35:02.325Z,25.50
2018-12-11T03:36:02.337Z,25.50
2018-12-11T03:37:02.288Z,26.60
2018-12-11T03:38:02.277Z,21.30
2018-12-11T03:39:02.271Z,28.40
2018-12-11T03:40:02.258Z,21.00
2018-12-11T03:41:02.265Z,23.20
2018-12-11T03:42:02.235Z,22.50
2018-12-11T03:43:02.218Z,22.60
2018-12-11T03:44:02.211Z,24.80
2018-12-11T03:45:02.199Z,25.30
2018-12-11T03:46:02.203Z,23.30
2018-12-11T03:47:02.178Z,19.00
2018-12-11T03:48:02.174Z,23.30
2018-12-11T03:49:02.155Z,20.70
2018-12-11T03:50:02.150Z,19.50
2018-12-11T03:51:02.151Z,26.60
2018-12-11T03:52:02.124Z,23.20
2018-12-11T03:53:02.115Z,25.90
2018-12-11T03:54:02.099Z,22.50
2018-12-11T03:55:02.096Z,18.40
2018-12-11T03:56:02.095Z,22.40
2018-12-11T03:57:02.069Z,23.00
2018-12-11T03:58:02.056Z,21.50
2018-12-11T03:59:02.045Z,22.10
2018-12-11T04:00:02.038Z,25.80
2018-12-11T04:01:02.042Z,24.30
2018-12-11T04:02:02.015Z,20.70
2018-12-11T04:03:02.003Z,21.80
2018-12-11T04:04:01.988Z,21.90
2018-12-11T04:05:01.979Z,21.10
2018-12-11T04:06:01.994Z,18.30
2018-12-11T04:07:01.958Z,23.10
2018-12-11T04:08:01.947Z,19.50
2018-12-11T04:09:01.938Z,20.80
2018-12-11T04:10:01.922Z,22.70
2018-12-11T04:11:01.929Z,20.40
2018-12-11T04:12:01.907Z,20.10
2018-12-11T04:13:01.894Z,19.60
2018-12-11T04:14:01.877Z,24.60
2018-12-11T04:15:01.865Z,23.60
2018-12-11T04:16:01.876Z,21.40
2018-12-11T04:17:01.847Z,23.80
2018-12-11T04:18:01.835Z,19.40
2018-12-11T04:19:01.824Z,21.00
2018-12-11T04:20:01.812Z,25.90
2018-12-11T04:21:01.829Z,25.40
2018-12-11T04:22:01.806Z,24.50
2018-12-11T04:23:01.784Z,23.30
2018-12-11T04:24:01.768Z,20.70
2018-12-11T04:25:01.758Z,27.90
2018-12-11T04:26:01.752Z,25.30
2018-12-11T04:27:01.751Z,27.30
2018-12-11T04:28:01.731Z,21.20
2018-12-11T04:29:01.710Z,23.80
2018-12-11T04:30:01.702Z,28.20
2018-12-11T04:31:01.687Z,19.60
2018-12-11T04:32:01.702Z,19.10
2018-12-11T04:33:01.674Z,22.90
2018-12-11T04:34:01.659Z,20.40
2018-12-11T04:35:01.643Z,19.50
2018-12-11T04:36:01.644Z,18.20
2018-12-11T04:37:01.652Z,21.20
2018-12-11T04:38:01.613Z,19.70
2018-12-11T04:39:01.606Z,22.30
2018-12-11T04:40:01.600Z,20.60
2018-12-11T04:41:01.584Z,21.10
2018-12-11T04:42:01.585Z,24.50
2018-12-11T04:43:01.558Z,28.60
2018-12-11T04:44:01.553Z,25.30
2018-12-11T04:45:01.545Z,27.50
2018-12-11T04:46:01.527Z,26.80
2018-12-11T04:47:01.531Z,24.40
2018-12-11T04:48:01.502Z,27.40
2018-12-11T04:49:01.494Z,24.70
2018-12-11T04:50:01.485Z,20.00
2018-12-11T04:51:01.471Z,23.80
2018-12-11T04:52:01.473Z,21.20
2018-12-11T04:53:01.450Z,24.40
2018-12-11T04:54:01.442Z,29.10
2018-12-11T04:55:01.427Z,22.50
2018-12-11T04:56:01.414Z,20.00
2018-12-11T04:57:01.422Z,15.90
2018-12-11T04:58:01.395Z,22.20
2018-12-11T04:59:01.385Z,20.80
2018-12-11T05:00:01.378Z,20.20
2018-12-11T05:01:01.366Z,24.40
2018-12-11T05:02:01.381Z,21.70
2018-12-11T05:03:01.343Z,25.90
2018-12-11T05:04:01.323Z,23.70
2018-12-11T05:05:01.315Z,24.10
2018-12-11T05:06:01.303Z,22.00
2018-12-11T05:07:01.328Z,21.10
2018-12-11T05:08:01.286Z,25.30
2018-12-11T05:09:01.272Z,16.60
2018-12-11T05:10:01.263Z,20.50
2018-12-11T05:11:01.255Z,24.60
2018-12-11T05:12:01.240Z,20.30
2018-12-11T05:13:01.242Z,20.80
2018-12-11T05:14:01.218Z,17.70
2018-12-11T05:15:01.207Z,19.00
2018-12-11T05:16:01.206Z,23.80
2018-12-11T05:17:01.190Z,22.10
2018-12-11T05:18:01.225Z,19.40
2018-12-11T05:19:01.164Z,20.60
2018-12-11T05:20:01.152Z,20.20
2018-12-11T05:21:01.141Z,20.30
2018-12-11T05:22:01.133Z,19.50
2018-12-11T05:23:01.139Z,14.50
2018-12-11T05:24:01.114Z,20.80
2018-12-11T05:25:01.099Z,16.50
2018-12-11T05:26:01.088Z,17.00
2018-12-11T05:27:01.074Z,18.30
2018-12-11T05:28:01.083Z,16.80
2018-12-11T05:29:01.052Z,14.20
2018-12-11T05:30:01.040Z,12.30
2018-12-11T05:31:01.033Z,14.40
2018-12-11T05:32:01.024Z,18.40
2018-12-11T05:33:01.028Z,14.40
2018-12-11T05:34:01.000Z,23.80
2018-12-11T05:35:00.997Z,22.90
2018-12-11T05:36:00.981Z,15.10
2018-12-11T05:37:00.966Z,17.00
2018-12-11T05:38:00.997Z,19.00
2018-12-11T05:39:00.945Z,15.90
2018-12-11T05:40:00.938Z,14.30
2018-12-11T05:41:00.924Z,18.20
2018-12-11T05:42:00.914Z,16.00
2018-12-11T05:43:00.916Z,14.60
2018-12-11T05:44:00.890Z,20.60
2018-12-11T05:45:00.880Z,14.30
2018-12-11T05:46:00.870Z,17.20
2018-12-11T05:47:00.854Z,17.00
2018-12-11T05:48:00.870Z,15.10
2018-12-11T05:49:00.841Z,15.20
2018-12-11T05:50:00.818Z,18.90
2018-12-11T05:51:00.810Z,14.60
2018-12-11T05:52:00.799Z,17.30
2018-12-11T05:53:00.789Z,16.60
2018-12-11T05:54:00.793Z,12.50
2018-12-11T05:55:00.771Z,14.30
2018-12-11T05:56:00.762Z,14.10
2018-12-11T05:57:00.745Z,15.50
2018-12-11T05:58:00.733Z,15.10
2018-12-11T05:59:00.739Z,12.40
2018-12-11T06:00:00.711Z,15.50
2018-12-11T06:01:00.699Z,17.20
2018-12-11T06:02:00.691Z,20.30
2018-12-11T06:03:00.683Z,13.80
2018-12-11T06:04:00.691Z,20.40
2018-12-11T06:05:00.656Z,14.40
2018-12-11T06:06:00.647Z,13.60
2018-12-11T06:07:00.640Z,11.90
2018-12-11T06:08:00.623Z,15.70
2018-12-11T06:09:00.630Z,20.00
2018-12-11T06:10:00.604Z,14.40
2018-12-11T06:11:00.594Z,17.10
2018-12-11T06:12:00.584Z,15.60
2018-12-11T06:13:00.575Z,18.20
2018-12-11T06:14:01.290Z,16.00
2018-12-11T06:15:00.570Z,16.10
2018-12-11T06:16:00.535Z,17.60
2018-12-11T06:17:00.523Z,15.00
2018-12-11T06:18:00.512Z,13.90
2018-12-11T06:19:00.517Z,13.60
2018-12-11T06:20:00.495Z,11.70
2018-12-11T06:21:00.483Z,10.30
2018-12-11T06:22:00.475Z,14.70
2018-12-11T06:23:00.461Z,15.40
2018-12-11T06:24:00.476Z,11.20
2018-12-11T06:25:00.441Z,9.90
2018-12-11T06:26:00.426Z,10.30
2018-12-11T06:27:00.419Z,13.00
2018-12-11T06:28:00.403Z,6.60
2018-12-11T06:29:00.390Z,8.20
2018-12-11T06:30:00.401Z,9.40
2018-12-11T06:31:00.374Z,5.40
2018-12-11T06:32:00.361Z,5.70
2018-12-11T06:33:00.351Z,6.80
2018-12-11T06:34:00.356Z,6.80
2018-12-11T06:35:00.342Z,5.00
2018-12-11T06:36:00.316Z,11.10
2018-12-11T06:37:00.317Z,6.50
2018-12-11T06:38:00.293Z,7.40
2018-12-11T06:39:00.284Z,6.90
2018-12-11T06:40:00.286Z,6.00
2018-12-11T06:41:00.261Z,8.10
2018-12-11T06:42:00.250Z,7.70
2018-12-11T06:43:00.237Z,7.50
2018-12-11T06:44:00.232Z,7.30
2018-12-11T06:45:00.246Z,7.80
2018-12-11T06:46:00.208Z,6.80
2018-12-11T06:47:00.205Z,7.60
2018-12-11T06:48:00.187Z,6.90
2018-12-11T06:49:00.178Z,10.20
2018-12-11T06:50:00.206Z,9.10
2018-12-11T06:51:00.162Z,7.90
2018-12-11T06:52:00.149Z,10.10
2018-12-11T06:53:00.129Z,9.60
2018-12-11T06:54:00.126Z,8.90
2018-12-11T06:55:00.128Z,8.80
2018-12-11T06:56:00.098Z,12.20
2018-12-11T06:57:00.082Z,8.70
2018-12-11T06:58:00.074Z,7.60
2018-12-11T06:59:00.067Z,10.60
2018-12-11T07:00:00.069Z,8.30
2018-12-11T07:01:00.041Z,8.90
2018-12-11T07:02:00.032Z,8.90
2018-12-11T07:03:00.020Z,10.80
2018-12-11T07:04:00.008Z,9.20
2018-12-11T07:05:00.017Z,8.40
2018-12-11T07:05:59.985Z,9.70
2018-12-11T07:06:59.973Z,8.70
2018-12-11T07:07:59.966Z,9.30
2018-12-11T07:08:59.954Z,9.20
2018-12-11T07:09:59.971Z,7.60
2018-12-11T07:10:59.929Z,10.60
2018-12-11T07:11:59.921Z,10.20
2018-12-11T07:12:59.912Z,6.00
2018-12-11T07:13:59.894Z,7.80
2018-12-11T07:14:59.906Z,7.60
2018-12-11T07:15:59.882Z,8.70
2018-12-11T07:16:59.864Z,10.30
2018-12-11T07:17:59.852Z,10.70
2018-12-11T07:18:59.845Z,6.00
2018-12-11T07:19:59.850Z,9.50
2018-12-11T07:20:59.839Z,7.40
2018-12-11T07:21:59.811Z,12.20
2018-12-11T07:22:59.805Z,8.40
2018-12-11T07:23:59.787Z,8.90
2018-12-11T07:24:59.777Z,8.30
2018-12-11T07:25:59.897Z,7.90
2018-12-11T07:26:59.766Z,7.10
2018-12-11T07:27:59.751Z,6.80
2018-12-11T07:28:59.730Z,8.90
2018-12-11T07:29:59.723Z,10.10
2018-12-11T07:30:59.725Z,7.90
2018-12-11T07:31:59.699Z,9.10
2018-12-11T07:32:59.691Z,10.10
2018-12-11T07:33:59.676Z,9.40
2018-12-11T07:34:59.665Z,8.50
2018-12-11T07:35:59.673Z,7.30
2018-12-11T07:36:59.643Z,9.40
2018-12-11T07:37:59.637Z,6.00
2018-12-11T07:38:59.621Z,6.90
2018-12-11T07:39:59.612Z,7.70
2018-12-11T07:40:59.619Z,6.20
2018-12-11T07:41:59.593Z,8.60
2018-12-11T07:42:59.579Z,8.00
2018-12-11T07:43:59.567Z,8.80
2018-12-11T07:44:59.561Z,6.70
2018-12-11T07:45:59.568Z,7.80
2018-12-11T07:46:59.537Z,7.20
2018-12-11T07:47:59.523Z,8.70
2018-12-11T07:48:59.515Z,7.70
2018-12-11T07:49:59.503Z,6.20
2018-12-11T07:50:59.507Z,9.20
2018-12-11T07:51:59.483Z,7.50
2018-12-11T07:52:59.467Z,4.50
2018-12-11T07:53:59.458Z,7.10
2018-12-11T07:54:59.451Z,5.80
2018-12-11T07:56:00.418Z,7.40
2018-12-11T07:56:59.424Z,5.50
2018-12-11T07:57:59.499Z,5.00
2018-12-11T07:58:59.403Z,5.00
2018-12-11T07:59:59.400Z,8.50
2018-12-11T08:00:59.392Z,5.30
2018-12-11T08:01:59.370Z,6.20
2018-12-11T08:02:59.358Z,8.10
2018-12-11T08:03:59.349Z,4.80
2018-12-11T08:04:59.335Z,4.50
2018-12-11T08:05:59.374Z,4.70
2018-12-11T08:06:59.316Z,3.20
2018-12-11T08:07:59.306Z,2.80
2018-12-11T08:08:59.293Z,5.30
2018-12-11T08:09:59.281Z,3.70
2018-12-11T08:10:59.270Z,3.30
2018-12-11T08:11:59.279Z,4.10
2018-12-11T08:12:59.247Z,5.00
2018-12-11T08:13:59.243Z,3.00
2018-12-11T08:14:59.227Z,4.30
2018-12-11T08:15:59.219Z,3.30
2018-12-11T08:16:59.223Z,3.70
2018-12-11T08:17:59.193Z,2.10
2018-12-11T08:18:59.193Z,2.70
2018-12-11T08:19:59.205Z,2.50
2018-12-11T08:20:59.177Z,5.30
2018-12-11T08:21:59.180Z,2.50
2018-12-11T08:22:59.209Z,3.90
2018-12-11T08:23:59.127Z,2.10
2018-12-11T08:24:59.117Z,2.80
2018-12-11T08:25:59.108Z,2.30
2018-12-11T08:26:59.128Z,3.20
2018-12-11T08:27:59.084Z,2.60
2018-12-11T08:28:59.070Z,3.00
2018-12-11T08:29:59.063Z,3.90
2018-12-11T08:30:59.051Z,3.80
2018-12-11T08:31:59.057Z,1.90
2018-12-11T08:32:59.026Z,1.80
2018-12-11T08:33:59.018Z,2.10
2018-12-11T08:34:59.005Z,2.40
2018-12-11T08:35:58.994Z,2.40
2018-12-11T08:36:59.009Z,3.50
2018-12-11T08:37:58.976Z,5.10
2018-12-11T08:38:58.962Z,4.00
2018-12-11T08:39:58.957Z,4.00
2018-12-11T08:40:58.944Z,5.20
2018-12-11T08:41:58.954Z,2.50
2018-12-11T08:42:58.918Z,3.60
2018-12-11T08:43:58.911Z,4.30
2018-12-11T08:44:58.894Z,2.50
2018-12-11T08:45:58.883Z,3.60
2018-12-11T08:46:58.899Z,3.60
2018-12-11T08:47:58.881Z,3.70
2018-12-11T08:48:58.855Z,3.50
2018-12-11T08:49:58.839Z,2.60
2018-12-11T08:50:58.835Z,3.50
2018-12-11T08:51:58.821Z,2.10
2018-12-11T08:52:58.830Z,2.60
2018-12-11T08:53:58.802Z,3.50
2018-12-11T08:54:58.785Z,3.30
2018-12-11T08:55:58.778Z,3.00
2018-12-11T08:56:58.771Z,3.50
2018-12-11T08:57:58.779Z,2.30
2018-12-11T08:58:58.751Z,6.50
2018-12-11T08:59:58.736Z,10.00
2018-12-11T09:00:58.721Z,15.00
2018-12-11T09:01:58.709Z,19.20
2018-12-11T09:02:58.714Z,13.20
2018-12-11T09:03:58.690Z,26.80
2018-12-11T09:04:58.697Z,16.10
2018-12-11T09:05:58.668Z,5.60
2018-12-11T09:06:58.656Z,18.80
2018-12-11T09:07:58.669Z,6.40
2018-12-11T09:08:58.639Z,3.90
2018-12-11T09:09:58.628Z,4.50
2018-12-11T09:10:58.608Z,6.10
2018-12-11T09:11:58.605Z,4.40
2018-12-11T09:12:58.609Z,3.90
2018-12-11T09:13:58.586Z,3.10
2018-12-11T09:14:58.574Z,10.50
2018-12-11T09:15:58.561Z,4.20
2018-12-11T09:16:58.549Z,5.20
2018-12-11T09:17:58.560Z,3.20
2018-12-11T09:18:58.544Z,2.50
2018-12-11T09:19:58.513Z,4.20
2018-12-11T09:20:58.503Z,8.10
2018-12-11T09:21:58.491Z,4.90
2018-12-11T09:22:58.495Z,5.30
2018-12-11T09:23:58.493Z,2.80
2018-12-11T09:24:58.471Z,3.00
2018-12-11T09:25:58.446Z,3.70
2018-12-11T09:26:58.440Z,5.00
2018-12-11T09:27:58.431Z,3.60
2018-12-11T09:28:58.431Z,3.90
2018-12-11T09:29:58.478Z,5.10
2018-12-11T09:30:58.396Z,3.00
2018-12-11T09:31:58.383Z,3.10
2018-12-11T09:32:58.401Z,2.30
2018-12-11T09:33:58.380Z,2.80
2018-12-11T09:34:58.354Z,4.30
2018-12-11T09:35:58.335Z,3.00
2018-12-11T09:36:58.322Z,2.80
2018-12-11T09:37:58.312Z,3.20
2018-12-11T09:38:58.321Z,4.70
2018-12-11T09:39:58.294Z,3.00
2018-12-11T09:40:58.280Z,2.20
2018-12-11T09:41:58.269Z,3.30
2018-12-11T09:42:58.261Z,3.90
2018-12-11T09:43:58.269Z,3.70
2018-12-11T09:44:58.238Z,3.80
2018-12-11T09:45:58.228Z,5.30
2018-12-11T09:46:58.220Z,3.70
2018-12-11T09:47:58.211Z,3.70
2018-12-11T09:48:58.210Z,4.70
2018-12-11T09:49:58.179Z,4.60
2018-12-11T09:50:58.168Z,4.00
2018-12-11T09:51:58.155Z,2.70
2018-12-11T09:52:58.156Z,2.80
2018-12-11T09:53:58.158Z,4.10
2018-12-11T09:54:58.150Z,18.80
2018-12-11T09:55:58.118Z,6.60
2018-12-11T09:56:58.104Z,4.10
2018-12-11T09:57:58.093Z,4.00
2018-12-11T09:58:58.102Z,4.10
2018-12-11T09:59:58.069Z,3.50
2018-12-11T10:00:58.060Z,5.50
2018-12-11T10:01:58.061Z,6.10
2018-12-11T10:02:58.043Z,8.10
2018-12-11T10:03:58.045Z,5.60
2018-12-11T10:04:58.017Z,4.80
2018-12-11T10:05:58.006Z,5.20
2018-12-11T10:06:57.995Z,6.00
2018-12-11T10:07:57.980Z,4.30
2018-12-11T10:08:57.994Z,5.20
2018-12-11T10:09:57.963Z,6.20
2018-12-11T10:10:57.949Z,5.00
2018-12-11T10:11:57.936Z,5.50
2018-12-11T10:12:57.930Z,7.90
2018-12-11T10:13:57.939Z,8.70
2018-12-11T10:14:57.911Z,7.70
2018-12-11T10:15:57.893Z,4.60
2018-12-11T10:16:57.887Z,7.40
2018-12-11T10:17:57.872Z,7.00
2018-12-11T10:18:57.880Z,6.90
2018-12-11T10:19:57.878Z,3.20
2018-12-11T10:20:57.838Z,5.50
2018-12-11T10:21:57.828Z,5.40
2018-12-11T10:22:57.816Z,6.10
2018-12-11T10:23:57.855Z,7.80
2018-12-11T10:24:57.820Z,7.60
2018-12-11T10:25:57.787Z,4.80
2018-12-11T10:26:57.777Z,5.40
2018-12-11T10:27:57.763Z,4.90
2018-12-11T10:28:57.755Z,4.40
2018-12-11T10:29:57.758Z,5.00
2018-12-11T10:30:57.732Z,5.40
2018-12-11T10:31:57.719Z,4.50
2018-12-11T10:32:57.708Z,5.10
2018-12-11T10:33:57.696Z,3.90
2018-12-11T10:34:57.730Z,4.00
2018-12-11T10:35:57.678Z,4.40
2018-12-11T10:36:57.662Z,5.00
2018-12-11T10:37:57.660Z,5.60
2018-12-11T10:38:57.643Z,3.10
2018-12-11T10:39:57.645Z,5.30
2018-12-11T10:40:57.630Z,4.10
2018-12-11T10:41:57.609Z,3.30
2018-12-11T10:42:57.605Z,4.30
2018-12-11T10:43:57.595Z,4.60
2018-12-11T10:44:57.594Z,2.70
2018-12-11T10:45:57.561Z,6.30
2018-12-11T10:46:57.554Z,4.60
2018-12-11T10:47:57.544Z,5.00
2018-12-11T10:48:57.527Z,3.70
2018-12-11T10:49:57.543Z,5.10
2018-12-11T10:50:57.504Z,3.60
2018-12-11T10:51:57.501Z,3.80
2018-12-11T10:52:57.487Z,3.60
2018-12-11T10:53:57.479Z,4.80
2018-12-11T10:54:57.482Z,3.70
2018-12-11T10:55:57.459Z,3.80
2018-12-11T10:56:57.446Z,3.60
2018-12-11T10:57:57.432Z,4.10
2018-12-11T10:58:57.420Z,5.70
2018-12-11T10:59:57.428Z,3.80
2018-12-11T11:00:57.397Z,2.90
2018-12-11T11:01:57.389Z,6.20
2018-12-11T11:02:57.373Z,4.20
2018-12-11T11:03:57.364Z,7.60
2018-12-11T11:04:57.386Z,4.10
2018-12-11T11:05:57.338Z,5.90
2018-12-11T11:06:57.330Z,5.20
2018-12-11T11:07:57.325Z,5.30
2018-12-11T11:08:57.308Z,7.40
2018-12-11T11:09:57.299Z,7.40
2018-12-11T11:10:57.354Z,5.20
2018-12-11T11:11:57.293Z,5.90
2018-12-11T11:12:57.302Z,5.80
2018-12-11T11:13:57.260Z,3.30
2018-12-11T11:14:57.245Z,3.60
2018-12-11T11:15:57.250Z,3.80
2018-12-11T11:16:57.284Z,5.20
2018-12-11T11:17:57.213Z,3.80
2018-12-11T11:18:57.201Z,3.20
2018-12-11T11:19:57.201Z,4.70
2018-12-11T11:20:57.198Z,5.40
2018-12-11T11:21:57.172Z,5.40
2018-12-11T11:22:57.158Z,5.80
2018-12-11T11:23:57.138Z,5.80
2018-12-11T11:24:57.132Z,5.90
2018-12-11T11:25:57.142Z,6.00
2018-12-11T11:26:57.120Z,5.60
2018-12-11T11:27:57.107Z,5.40
2018-12-11T11:28:57.095Z,5.10
2018-12-11T11:29:57.088Z,7.40
2018-12-11T11:30:57.088Z,5.80
2018-12-11T11:31:57.061Z,4.90
2018-12-11T11:32:57.044Z,4.60
2018-12-11T11:33:58.578Z,5.20
2018-12-11T11:34:57.024Z,3.50
2018-12-11T11:35:57.092Z,3.30
2018-12-11T11:36:57.000Z,4.60
2018-12-11T11:37:56.996Z,4.40
2018-12-11T11:38:56.981Z,3.60
2018-12-11T11:39:56.970Z,5.10
2018-12-11T11:40:56.981Z,5.10
2018-12-11T11:41:56.945Z,4.20
2018-12-11T11:42:56.938Z,4.50
2018-12-11T11:43:57.899Z,3.70
2018-12-11T11:44:56.916Z,5.00
2018-12-11T11:45:56.940Z,4.20
2018-12-11T11:46:56.896Z,3.40
2018-12-11T11:47:56.882Z,5.20
2018-12-11T11:48:56.882Z,5.60
2018-12-11T11:49:56.860Z,3.80
2018-12-11T11:50:56.865Z,5.40
2018-12-11T11:51:56.854Z,3.20
2018-12-11T11:52:56.824Z,4.20
2018-12-11T11:53:56.814Z,5.60
2018-12-11T11:54:56.809Z,5.10
2018-12-11T11:55:56.796Z,4.50
2018-12-11T11:56:56.808Z,4.60
2018-12-11T11:57:56.768Z,5.10
2018-12-11T11:58:56.759Z,5.50
2018-12-11T11:59:56.748Z,5.60
2018-12-11T12:00:56.741Z,4.70
2018-12-11T12:01:56.748Z,3.50
2018-12-11T12:02:56.712Z,3.40
2018-12-11T12:03:56.709Z,3.20
2018-12-11T12:04:56.696Z,3.70
2018-12-11T12:05:56.682Z,4.50
2018-12-11T12:06:56.691Z,3.70
2018-12-11T12:07:56.663Z,3.20
2018-12-11T12:08:59.430Z,3.90
2018-12-11T12:09:56.640Z,5.90
2018-12-11T12:10:56.633Z,4.10
2018-12-11T12:11:56.630Z,5.40
2018-12-11T12:12:56.605Z,7.80
2018-12-11T12:13:56.594Z,7.10
2018-12-11T12:14:56.582Z,5.80
2018-12-11T12:15:56.569Z,4.30
2018-12-11T12:16:56.583Z,4.10
2018-12-11T12:17:56.553Z,6.20
2018-12-11T12:18:57.283Z,6.40
2018-12-11T12:19:56.528Z,5.10
2018-12-11T12:20:56.519Z,3.00
2018-12-11T12:21:56.525Z,4.30
2018-12-11T12:22:56.494Z,3.40
2018-12-11T12:23:56.483Z,5.50
2018-12-11T12:24:56.471Z,4.00
2018-12-11T12:25:56.466Z,6.40
2018-12-11T12:26:56.478Z,5.00
2018-12-11T12:27:56.440Z,4.00
2018-12-11T12:28:56.434Z,4.10
2018-12-11T12:29:56.429Z,3.60
2018-12-11T12:30:56.408Z,4.10
2018-12-11T12:31:56.411Z,6.80
2018-12-11T12:32:56.379Z,4.70
2018-12-11T12:33:56.371Z,6.90
2018-12-11T12:34:56.368Z,6.00
2018-12-11T12:35:56.383Z,5.40
2018-12-11T12:36:56.371Z,5.70
2018-12-11T12:37:56.335Z,4.20
2018-12-11T12:38:56.319Z,3.30
2018-12-11T12:39:56.307Z,5.60
2018-12-11T12:40:56.299Z,4.00
2018-12-11T12:41:56.285Z,5.40
2018-12-11T12:42:56.290Z,4.60
2018-12-11T12:43:56.268Z,5.00
2018-12-11T12:44:56.253Z,4.10
2018-12-11T12:45:56.238Z,5.00
2018-12-11T12:46:56.235Z,3.30
2018-12-11T12:47:56.243Z,3.10
2018-12-11T12:48:56.208Z,4.90
2018-12-11T12:49:56.199Z,3.00
2018-12-11T12:50:56.185Z,2.90
2018-12-11T12:51:56.174Z,4.40
2018-12-11T12:52:56.190Z,2.90
2018-12-11T12:53:56.163Z,3.00
2018-12-11T12:54:56.143Z,3.50
2018-12-11T12:55:56.137Z,2.90
2018-12-11T12:56:56.120Z,3.60
2018-12-11T12:58:56.099Z,2.60
2018-12-11T12:59:56.089Z,2.20
2018-12-11T13:00:56.084Z,2.10
2018-12-11T13:01:56.070Z,2.20
2018-12-11T13:02:56.070Z,2.80
2018-12-11T13:03:56.046Z,2.10
2018-12-11T13:04:56.033Z,3.00
2018-12-11T13:05:56.021Z,4.40